Time;durP1;ratioP1;P1;durP2;ratioP2;P2;SDS_P1;SDS_P2;PMS_P1;PMS_P2;Temp;Humidity;BMP_temperature;BMP_pressure;BME280_temperature;BME280_humidity;BME280_pressure;Samples;Min_cycle;Max_cycle;Signal;HPM_P1;HPM_P2
2022/03/05 00:00:46;;;;;;;10.20;6.40;;;;;;;;;;5010418;28;20021;-65
2022/03/05 00:03:12;;;;;;;13.02;6.68;;;;;;;;;;5010394;28;20030;-66
2022/03/05 00:05:38;;;;;;;10.52;6.82;;;;;;;;;;5010186;28;20022;-66
2022/03/05 00:08:04;;;;;;;11.85;6.75;;;;;;;;;;5010247;28;20029;-65
2022/03/05 00:10:30;;;;;;;10.85;6.78;;;;;;;;;;5010330;28;20482;-65
2022/03/05 00:12:56;;;;;;;10.10;6.18;;;;;;;;;;5010520;28;20097;-65
2022/03/05 00:15:23;;;;;;;11.18;6.45;;;;;;;;;;5009811;28;20105;-65
2022/03/05 00:17:50;;;;;;;9.77;6.20;;;;;;;;;;5010261;28;20037;-66
2022/03/05 00:20:16;;;;;;;10.48;6.15;;;;;;;;;;5010013;28;20029;-65
2022/03/05 00:22:42;;;;;;;9.07;5.53;;;;;;;;;;5010202;28;20030;-65
2022/03/05 00:25:08;;;;;;;8.40;5.45;;;;;;;;;;5009807;28;20021;-65
2022/03/05 00:27:33;;;;;;;9.23;5.75;;;;;;;;;;5010220;28;20106;-65
2022/03/05 00:29:59;;;;;;;8.45;5.90;;;;;;;;;;5009949;28;20045;-66
2022/03/05 00:32:24;;;;;;;10.45;5.43;;;;;;;;;;5010348;28;20030;-66
2022/03/05 00:34:50;;;;;;;7.20;5.38;;;;;;;;;;5009741;28;20083;-66
2022/03/05 00:37:16;;;;;;;8.85;5.88;;;;;;;;;;5010191;28;20102;-65
2022/03/05 00:39:42;;;;;;;9.40;5.70;;;;;;;;;;5009772;28;20057;-66
2022/03/05 00:42:07;;;;;;;8.60;5.80;;;;;;;;;;5010002;28;20077;-66
2022/03/05 00:44:33;;;;;;;9.32;6.10;;;;;;;;;;5009950;28;20029;-65
2022/03/05 00:46:58;;;;;;;10.68;5.75;;;;;;;;;;5009835;28;20030;-65
2022/03/05 00:49:25;;;;;;;11.13;5.78;;;;;;;;;;5009834;28;20034;-66
2022/03/05 00:51:52;;;;;;;11.15;6.20;;;;;;;;;;5010199;28;20032;-64
2022/03/05 00:54:18;;;;;;;11.30;6.25;;;;;;;;;;5009720;28;20022;-66
2022/03/05 00:56:43;;;;;;;11.98;6.18;;;;;;;;;;5009800;28;20022;-65
2022/03/05 00:59:09;;;;;;;8.95;5.85;;;;;;;;;;5009546;28;20018;-65
2022/03/05 01:01:34;;;;;;;10.85;6.45;;;;;;;;;;5009899;28;20026;-65
2022/03/05 01:03:59;;;;;;;10.55;6.25;;;;;;;;;;5009994;28;20097;-65
2022/03/05 01:06:27;;;;;;;10.43;6.35;;;;;;;;;;5009777;28;20022;-64
2022/03/05 01:08:53;;;;;;;10.27;6.05;;;;;;;;;;5009593;28;20022;-65
2022/03/05 01:11:19;;;;;;;10.63;6.22;;;;;;;;;;5009642;28;20037;-66
2022/03/05 01:13:45;;;;;;;10.82;6.30;;;;;;;;;;5009732;28;20081;-66
2022/03/05 01:16:10;;;;;;;10.02;6.35;;;;;;;;;;5009431;28;20030;-66
2022/03/05 01:18:36;;;;;;;10.65;6.43;;;;;;;;;;5009452;28;20048;-65
2022/03/05 01:21:02;;;;;;;11.15;6.85;;;;;;;;;;5009599;28;20643;-64
2022/03/05 01:23:27;;;;;;;9.77;6.28;;;;;;;;;;5009757;28;20105;-65
2022/03/05 01:25:53;;;;;;;10.35;6.35;;;;;;;;;;5009551;28;20021;-66
2022/03/05 01:28:18;;;;;;;11.15;6.22;;;;;;;;;;5010277;28;20034;-65
2022/03/05 01:30:44;;;;;;;10.98;6.60;;;;;;;;;;5012799;28;20076;-65
2022/03/05 01:33:09;;;;;;;9.63;6.63;;;;;;;;;;5012988;28;20046;-65
2022/03/05 01:35:35;;;;;;;10.57;6.45;;;;;;;;;;5013122;28;20034;-65
2022/03/05 01:38:00;;;;;;;9.65;6.30;;;;;;;;;;5013325;28;20025;-66
2022/03/05 01:40:26;;;;;;;9.65;6.68;;;;;;;;;;5012749;28;20026;-65
2022/03/05 01:42:52;;;;;;;11.52;6.43;;;;;;;;;;5013131;28;20117;-64
2022/03/05 01:45:17;;;;;;;11.63;6.57;;;;;;;;;;5012439;28;20505;-65
2022/03/05 01:47:45;;;;;;;10.13;6.43;;;;;;;;;;5012777;28;20069;-65
2022/03/05 01:50:12;;;;;;;10.07;6.65;;;;;;;;;;5012320;28;20034;-65
2022/03/05 01:52:38;;;;;;;10.38;6.93;;;;;;;;;;5012815;28;20438;-65
2022/03/05 01:55:04;;;;;;;12.70;6.55;;;;;;;;;;5012653;28;20057;-65
2022/03/05 01:57:29;;;;;;;11.95;6.78;;;;;;;;;;5012712;28;20514;-64
2022/03/05 01:59:55;;;;;;;10.90;6.63;;;;;;;;;;5012257;28;20026;-64
2022/03/05 02:02:20;;;;;;;12.30;6.78;;;;;;;;;;5012532;28;20080;-65
2022/03/05 02:04:45;;;;;;;9.68;6.25;;;;;;;;;;5012331;28;20029;-65
2022/03/05 02:07:11;;;;;;;11.65;6.40;;;;;;;;;;5012314;28;20204;-66
2022/03/05 02:09:37;;;;;;;11.85;6.57;;;;;;;;;;5012165;28;20029;-66
2022/03/05 02:12:03;;;;;;;11.05;6.45;;;;;;;;;;5012372;28;20034;-65
2022/03/05 02:14:29;;;;;;;10.13;6.28;;;;;;;;;;5012506;28;20029;-66
2022/03/05 02:16:55;;;;;;;10.75;6.13;;;;;;;;;;5012076;28;20124;-66
2022/03/05 02:19:21;;;;;;;12.23;6.45;;;;;;;;;;5011963;28;20117;-66
2022/03/05 02:21:47;;;;;;;8.80;5.60;;;;;;;;;;5011860;28;20022;-65
2022/03/05 02:24:14;;;;;;;9.32;5.70;;;;;;;;;;5012244;28;20397;-66
2022/03/05 02:26:40;;;;;;;9.10;5.63;;;;;;;;;;5012110;28;20021;-65
2022/03/05 02:29:05;;;;;;;10.07;5.75;;;;;;;;;;5011951;28;20033;-65
2022/03/05 02:31:30;;;;;;;9.15;5.50;;;;;;;;;;5011844;28;20030;-65
2022/03/05 02:33:56;;;;;;;9.48;5.30;;;;;;;;;;5012003;28;20049;-66
2022/03/05 02:36:23;;;;;;;9.93;5.68;;;;;;;;;;5011803;28;20044;-66
2022/03/05 02:38:52;;;;;;;10.23;5.90;;;;;;;;;;5011781;28;20061;-65
2022/03/05 02:41:18;;;;;;;8.95;5.88;;;;;;;;;;5010661;28;20048;-66
2022/03/05 02:43:45;;;;;;;9.80;5.88;;;;;;;;;;5011926;28;20030;-66
2022/03/05 02:46:10;;;;;;;9.75;6.00;;;;;;;;;;5011466;28;20121;-66
2022/03/05 02:48:36;;;;;;;10.02;5.80;;;;;;;;;;5011905;28;20184;-65
2022/03/05 02:51:02;;;;;;;10.80;6.47;;;;;;;;;;5011625;28;20117;-64
2022/03/05 02:53:29;;;;;;;12.15;6.40;;;;;;;;;;5011736;28;20030;-65
2022/03/05 02:55:55;;;;;;;10.02;5.78;;;;;;;;;;5011532;28;20104;-66
2022/03/05 02:58:21;;;;;;;9.80;6.25;;;;;;;;;;5011572;28;20105;-65
2022/03/05 03:00:46;;;;;;;9.05;5.97;;;;;;;;;;5010984;28;20123;-66
2022/03/05 03:03:12;;;;;;;9.80;6.00;;;;;;;;;;5011599;28;20022;-65
2022/03/05 03:05:38;;;;;;;11.20;6.68;;;;;;;;;;5011470;28;20528;-66
2022/03/05 03:08:04;;;;;;;9.90;6.38;;;;;;;;;;5011354;28;20040;-65
2022/03/05 03:10:29;;;;;;;12.20;6.50;;;;;;;;;;5011105;28;20026;-67
2022/03/05 03:12:55;;;;;;;12.52;6.97;;;;;;;;;;5011143;28;20072;-64
2022/03/05 03:15:21;;;;;;;10.18;6.25;;;;;;;;;;5011124;28;20049;-66
2022/03/05 03:17:50;;;;;;;10.00;6.70;;;;;;;;;;5011115;28;20084;-65
2022/03/05 03:20:22;;;;;;;11.50;7.13;;;;;;;;;;5011066;28;20031;-67
2022/03/05 03:22:48;;;;;;;11.60;6.93;;;;;;;;;;5010966;28;20563;-65
2022/03/05 03:25:13;;;;;;;12.15;6.85;;;;;;;;;;5011179;28;20608;-65
2022/03/05 03:27:39;;;;;;;12.45;6.72;;;;;;;;;;5010765;28;20032;-64
2022/03/05 03:30:07;;;;;;;11.27;6.93;;;;;;;;;;5010717;28;20034;-64
2022/03/05 03:32:33;;;;;;;11.40;6.68;;;;;;;;;;5010824;28;20053;-66
2022/03/05 03:34:58;;;;;;;11.15;6.80;;;;;;;;;;5010777;28;20453;-65
2022/03/05 03:37:28;;;;;;;10.30;6.53;;;;;;;;;;5010612;28;20080;-65
2022/03/05 03:39:55;;;;;;;10.83;6.77;;;;;;;;;;5010912;28;20057;-65
2022/03/05 03:42:21;;;;;;;8.85;6.53;;;;;;;;;;5010636;28;20025;-65
2022/03/05 03:44:47;;;;;;;11.25;6.53;;;;;;;;;;5010782;28;20022;-65
2022/03/05 03:47:12;;;;;;;10.77;6.65;;;;;;;;;;5010484;28;20113;-65
2022/03/05 03:49:38;;;;;;;9.80;6.55;;;;;;;;;;5010399;28;20034;-65
2022/03/05 03:52:03;;;;;;;11.90;7.00;;;;;;;;;;5010172;28;20275;-65
2022/03/05 03:54:29;;;;;;;10.30;6.72;;;;;;;;;;5010847;28;20037;-65
2022/03/05 03:56:54;;;;;;;10.43;6.90;;;;;;;;;;5010539;28;20045;-66
2022/03/05 03:59:20;;;;;;;11.05;6.97;;;;;;;;;;5010922;28;20029;-65
2022/03/05 04:01:46;;;;;;;11.75;7.00;;;;;;;;;;5010337;28;20014;-67
2022/03/05 04:04:11;;;;;;;10.75;6.60;;;;;;;;;;5010536;28;20026;-65
2022/03/05 04:09:20;;;;;;;9.32;6.60;;;;;;;;;;5010324;28;20553;-65
2022/03/05 04:11:46;;;;;;;10.43;6.78;;;;;;;;;;5010273;28;20125;-65
2022/03/05 04:14:12;;;;;;;12.50;7.85;;;;;;;;;;5010569;28;20028;-65
2022/03/05 04:16:37;;;;;;;11.70;7.03;;;;;;;;;;5010211;28;20032;-65
2022/03/05 04:19:02;;;;;;;12.82;7.57;;;;;;;;;;5010300;28;20170;-66
2022/03/05 04:21:28;;;;;;;12.75;7.22;;;;;;;;;;5009956;28;20045;-65
2022/03/05 04:23:53;;;;;;;10.60;7.07;;;;;;;;;;5010170;28;20018;-65
2022/03/05 04:26:19;;;;;;;10.98;7.55;;;;;;;;;;5010211;28;20037;-65
2022/03/05 04:28:44;;;;;;;14.68;7.63;;;;;;;;;;5010087;28;20029;-66
2022/03/05 04:31:10;;;;;;;11.18;7.18;;;;;;;;;;5010069;28;20026;-65
2022/03/05 04:33:35;;;;;;;10.55;7.20;;;;;;;;;;5009781;28;20050;-65
2022/03/05 04:36:01;;;;;;;13.07;7.88;;;;;;;;;;5010293;28;20462;-66
2022/03/05 04:38:26;;;;;;;13.43;7.90;;;;;;;;;;5009944;28;20044;-66
2022/03/05 04:40:53;;;;;;;12.98;8.02;;;;;;;;;;5009805;28;20053;-65
2022/03/05 04:43:18;;;;;;;12.70;8.00;;;;;;;;;;5010084;28;20034;-65
2022/03/05 04:45:43;;;;;;;14.23;8.30;;;;;;;;;;5010116;28;20040;-65
2022/03/05 04:48:09;;;;;;;14.50;8.27;;;;;;;;;;5009983;28;20026;-65
2022/03/05 04:50:34;;;;;;;12.07;7.95;;;;;;;;;;5025201;28;20033;-65
2022/03/05 04:53:00;;;;;;;12.32;8.20;;;;;;;;;;5009889;28;20030;-65
2022/03/05 04:55:26;;;;;;;14.02;7.88;;;;;;;;;;5009986;28;20030;-65
2022/03/05 04:57:51;;;;;;;15.00;9.38;;;;;;;;;;5009740;28;20034;-65
2022/03/05 05:00:17;;;;;;;12.82;7.80;;;;;;;;;;5009687;28;20022;-65
2022/03/05 05:02:42;;;;;;;15.95;8.40;;;;;;;;;;5009890;28;20037;-65
2022/03/05 05:05:08;;;;;;;15.15;8.48;;;;;;;;;;5013686;28;20565;-66
2022/03/05 05:07:34;;;;;;;16.30;7.90;;;;;;;;;;5013554;28;20057;-65
2022/03/05 05:09:59;;;;;;;15.63;7.40;;;;;;;;;;5013480;28;20068;-65
2022/03/05 05:12:25;;;;;;;13.68;6.95;;;;;;;;;;5013146;28;20421;-65
2022/03/05 05:14:50;;;;;;;12.82;6.65;;;;;;;;;;5013379;28;20529;-65
2022/03/05 05:17:16;;;;;;;14.23;7.18;;;;;;;;;;5013303;28;20125;-65
2022/03/05 05:19:41;;;;;;;18.52;7.53;;;;;;;;;;5013469;28;20120;-65
2022/03/05 05:22:07;;;;;;;18.10;7.80;;;;;;;;;;5013237;28;20091;-65
2022/03/05 05:24:35;;;;;;;16.95;7.57;;;;;;;;;;5013257;28;20083;-65
2022/03/05 05:27:01;;;;;;;17.67;8.27;;;;;;;;;;5013283;28;20109;-65
2022/03/05 05:29:26;;;;;;;16.50;9.18;;;;;;;;;;5013031;28;20486;-65
2022/03/05 05:31:52;;;;;;;18.92;9.15;;;;;;;;;;5012790;28;20026;-65
2022/03/05 05:34:18;;;;;;;18.08;8.95;;;;;;;;;;5012924;28;20052;-65
2022/03/05 05:36:44;;;;;;;16.00;7.97;;;;;;;;;;5013247;28;20041;-64
2022/03/05 05:39:11;;;;;;;16.02;8.20;;;;;;;;;;5012982;28;20599;-65
2022/03/05 05:41:38;;;;;;;14.20;7.88;;;;;;;;;;5012991;28;20101;-65
2022/03/05 05:44:05;;;;;;;12.07;7.07;;;;;;;;;;5012743;28;20018;-65
2022/03/05 05:46:30;;;;;;;13.55;7.15;;;;;;;;;;5012795;28;20025;-65
2022/03/05 05:48:57;;;;;;;11.95;6.80;;;;;;;;;;5012511;28;20021;-65
2022/03/05 05:51:27;;;;;;;12.95;7.50;;;;;;;;;;5012761;28;20029;-65
2022/03/05 05:53:53;;;;;;;11.85;7.05;;;;;;;;;;5012647;28;20398;-65
2022/03/05 05:56:18;;;;;;;11.18;7.43;;;;;;;;;;5012777;28;20026;-65
2022/03/05 05:58:44;;;;;;;11.80;7.13;;;;;;;;;;5012804;28;20022;-65
2022/03/05 06:01:10;;;;;;;12.13;7.45;;;;;;;;;;5012305;28;20030;-66
2022/03/05 06:03:35;;;;;;;12.77;7.45;;;;;;;;;;5012222;28;20421;-65
2022/03/05 06:06:01;;;;;;;14.90;7.63;;;;;;;;;;5012484;28;20103;-65
2022/03/05 06:08:27;;;;;;;13.98;7.30;;;;;;;;;;5012311;28;20417;-65
2022/03/05 06:10:54;;;;;;;14.13;8.10;;;;;;;;;;5012478;28;20482;-65
2022/03/05 06:13:20;;;;;;;15.80;7.95;;;;;;;;;;5012319;28;20393;-66
2022/03/05 06:15:46;;;;;;;14.00;7.50;;;;;;;;;;5012245;28;20034;-65
2022/03/05 06:18:11;;;;;;;14.45;7.60;;;;;;;;;;5012120;28;20038;-65
2022/03/05 06:20:37;;;;;;;11.82;7.65;;;;;;;;;;5012011;28;20018;-65
2022/03/05 06:23:04;;;;;;;13.82;7.13;;;;;;;;;;5011959;28;20101;-65
2022/03/05 06:25:30;;;;;;;11.13;6.75;;;;;;;;;;5012192;28;20026;-65
2022/03/05 06:27:55;;;;;;;12.82;7.20;;;;;;;;;;5011984;28;20026;-65
2022/03/05 06:30:21;;;;;;;13.88;7.47;;;;;;;;;;5011920;28;20030;-65
2022/03/05 06:32:46;;;;;;;11.48;6.65;;;;;;;;;;5012059;28;20029;-65
2022/03/05 06:35:12;;;;;;;13.80;7.47;;;;;;;;;;5011903;28;20022;-65
2022/03/05 06:37:38;;;;;;;12.43;7.40;;;;;;;;;;5011862;28;20022;-65
2022/03/05 06:40:05;;;;;;;11.93;6.72;;;;;;;;;;5011677;28;20044;-65
2022/03/05 06:42:31;;;;;;;14.88;7.20;;;;;;;;;;5011903;28;20026;-65
2022/03/05 06:44:56;;;;;;;12.88;6.80;;;;;;;;;;5011575;28;20626;-65
2022/03/05 06:47:22;;;;;;;12.93;7.15;;;;;;;;;;5012110;28;20029;-65
2022/03/05 06:49:47;;;;;;;14.05;7.60;;;;;;;;;;5011792;28;20033;-65
2022/03/05 06:52:13;;;;;;;13.63;7.70;;;;;;;;;;5011675;28;20084;-65
2022/03/05 06:54:38;;;;;;;14.52;8.05;;;;;;;;;;5012347;28;20477;-65
2022/03/05 06:57:04;;;;;;;15.10;8.27;;;;;;;;;;5011835;28;20108;-65
2022/03/05 06:59:30;;;;;;;12.45;7.75;;;;;;;;;;5011478;28;20025;-65
2022/03/05 07:01:55;;;;;;;14.70;8.30;;;;;;;;;;5011442;28;20029;-65
2022/03/05 07:04:21;;;;;;;13.88;8.32;;;;;;;;;;5011420;28;20026;-65
2022/03/05 07:06:47;;;;;;;14.00;7.68;;;;;;;;;;5011789;28;20030;-65
2022/03/05 07:09:12;;;;;;;15.57;8.90;;;;;;;;;;5011252;28;20038;-66
2022/03/05 07:11:38;;;;;;;16.20;8.95;;;;;;;;;;5011111;28;20030;-65
2022/03/05 07:14:03;;;;;;;19.30;9.52;;;;;;;;;;5011409;28;20414;-65
2022/03/05 07:16:29;;;;;;;25.00;14.13;;;;;;;;;;5011855;28;20018;-66
2022/03/05 07:18:54;;;;;;;22.40;12.77;;;;;;;;;;5011197;28;20076;-65
2022/03/05 07:21:20;;;;;;;19.55;10.82;;;;;;;;;;5011055;28;20451;-65
2022/03/05 07:23:45;;;;;;;18.75;10.82;;;;;;;;;;5011203;28;20052;-65
2022/03/05 07:26:11;;;;;;;26.58;13.52;;;;;;;;;;5010708;28;20032;-65
2022/03/05 07:28:36;;;;;;;22.38;11.68;;;;;;;;;;5010783;28;20041;-65
2022/03/05 07:31:02;;;;;;;28.63;15.40;;;;;;;;;;5010616;28;20109;-65
2022/03/05 07:33:28;;;;;;;23.13;13.05;;;;;;;;;;5010781;28;20049;-65
2022/03/05 07:35:54;;;;;;;26.38;14.98;;;;;;;;;;5010946;28;20040;-65
2022/03/05 07:38:20;;;;;;;18.33;11.70;;;;;;;;;;5011119;28;20030;-65
2022/03/05 07:40:46;;;;;;;19.63;11.07;;;;;;;;;;5010683;28;20128;-65
2022/03/05 07:43:14;;;;;;;19.77;10.77;;;;;;;;;;5010871;28;20072;-65
2022/03/05 07:45:40;;;;;;;19.65;11.10;;;;;;;;;;5010470;28;20084;-65
2022/03/05 07:48:05;;;;;;;23.98;13.05;;;;;;;;;;5010476;28;20026;-65
2022/03/05 07:50:31;;;;;;;26.40;15.45;;;;;;;;;;5010399;28;20029;-65
2022/03/05 07:52:57;;;;;;;19.73;11.90;;;;;;;;;;5010725;28;20030;-65
2022/03/05 07:55:23;;;;;;;21.60;12.35;;;;;;;;;;5010385;28;20025;-65
2022/03/05 07:57:49;;;;;;;31.50;15.68;;;;;;;;;;5010695;28;20021;-65
2022/03/05 08:00:14;;;;;;;19.83;11.63;;;;;;;;;;5010346;28;20037;-65
2022/03/05 08:02:40;;;;;;;19.05;11.15;;;;;;;;;;5010505;28;20044;-65
2022/03/05 08:05:06;;;;;;;19.35;11.10;;;;;;;;;;5010178;28;20060;-65
2022/03/05 08:07:31;;;;;;;17.63;10.27;;;;;;;;;;5010406;28;20148;-65
2022/03/05 08:09:57;;;;;;;19.65;11.57;;;;;;;;;;5010205;28;20061;-65
2022/03/05 08:12:22;;;;;;;20.15;10.32;;;;;;;;;;5010404;28;20087;-65
2022/03/05 08:14:49;;;;;;;23.05;12.60;;;;;;;;;;5010274;28;20497;-65
2022/03/05 08:17:14;;;;;;;17.88;10.68;;;;;;;;;;5010309;28;20502;-65
2022/03/05 08:19:40;;;;;;;21.95;11.10;;;;;;;;;;5010032;28;20026;-65
2022/03/05 08:22:06;;;;;;;20.65;10.95;;;;;;;;;;5008309;28;20118;-65
2022/03/05 08:24:32;;;;;;;17.92;9.95;;;;;;;;;;5009966;28;20176;-65
2022/03/05 08:26:57;;;;;;;25.52;13.32;;;;;;;;;;5010175;28;20014;-64
2022/03/05 08:29:23;;;;;;;20.25;11.50;;;;;;;;;;5009921;28;20029;-65
2022/03/05 08:31:49;;;;;;;22.35;12.98;;;;;;;;;;5010023;28;20060;-64
2022/03/05 08:34:14;;;;;;;25.02;12.52;;;;;;;;;;5009973;28;20042;-65
2022/03/05 08:36:40;;;;;;;18.45;10.90;;;;;;;;;;5010059;28;20422;-64
2022/03/05 08:39:05;;;;;;;18.58;10.55;;;;;;;;;;5013755;28;20020;-64
2022/03/05 08:41:31;;;;;;;21.05;11.13;;;;;;;;;;5013759;28;20024;-65
2022/03/05 08:43:56;;;;;;;22.58;10.68;;;;;;;;;;5015841;28;20034;-65
2022/03/05 08:46:21;;;;;;;20.02;12.38;;;;;;;;;;5013851;28;20026;-65
2022/03/05 08:48:47;;;;;;;20.50;11.13;;;;;;;;;;5014015;28;20041;-64
2022/03/05 08:51:13;;;;;;;25.05;14.23;;;;;;;;;;5013409;28;20037;-65
2022/03/05 08:53:38;;;;;;;18.70;10.90;;;;;;;;;;5013875;28;20049;-65
2022/03/05 08:56:04;;;;;;;22.23;11.90;;;;;;;;;;5013366;28;20493;-65
2022/03/05 08:58:29;;;;;;;22.35;12.10;;;;;;;;;;5013820;28;20549;-65
2022/03/05 09:00:59;;;;;;;23.10;12.13;;;;;;;;;;5013356;28;20029;-65
2022/03/05 09:03:25;;;;;;;18.05;10.75;;;;;;;;;;5013681;28;20552;-65
2022/03/05 09:05:50;;;;;;;17.98;10.63;;;;;;;;;;5013553;28;20108;-65
2022/03/05 09:08:16;;;;;;;18.17;10.23;;;;;;;;;;5013637;28;20073;-64
2022/03/05 09:10:41;;;;;;;19.10;9.57;;;;;;;;;;5013320;28;20034;-64
2022/03/05 09:13:07;;;;;;;19.92;10.73;;;;;;;;;;5012769;28;20463;-65
2022/03/05 09:15:32;;;;;;;14.07;9.00;;;;;;;;;;5012386;28;20033;-64
2022/03/05 09:17:58;;;;;;;15.48;8.63;;;;;;;;;;5013520;28;20034;-65
2022/03/05 09:20:23;;;;;;;14.98;8.32;;;;;;;;;;5013218;28;20393;-65
2022/03/05 09:22:49;;;;;;;16.95;9.05;;;;;;;;;;5012829;28;20492;-65
2022/03/05 09:25:14;;;;;;;12.32;8.43;;;;;;;;;;5011814;28;20033;-65
2022/03/05 09:27:41;;;;;;;14.18;8.55;;;;;;;;;;5011770;28;20061;-65
2022/03/05 09:30:07;;;;;;;14.38;8.50;;;;;;;;;;5012764;28;20038;-64
2022/03/05 09:32:33;;;;;;;17.17;8.57;;;;;;;;;;5012358;28;20064;-65
2022/03/05 09:34:59;;;;;;;15.93;8.68;;;;;;;;;;5012663;28;20077;-65
2022/03/05 09:37:30;;;;;;;14.38;7.38;;;;;;;;;;5013226;28;20080;-65
2022/03/05 09:39:56;;;;;;;16.08;8.77;;;;;;;;;;5013092;28;20030;-65
2022/03/05 09:42:23;;;;;;;16.13;8.20;;;;;;;;;;5012849;28;20033;-65
2022/03/05 09:44:48;;;;;;;11.90;8.15;;;;;;;;;;5011427;28;20248;-65
2022/03/05 09:47:14;;;;;;;15.52;8.77;;;;;;;;;;5012743;28;20589;-66
2022/03/05 09:49:40;;;;;;;16.38;9.25;;;;;;;;;;5012129;28;20030;-65
2022/03/05 09:52:06;;;;;;;17.35;9.90;;;;;;;;;;5012395;28;20132;-65
2022/03/05 09:54:32;;;;;;;18.48;9.60;;;;;;;;;;5012992;28;20038;-67
2022/03/05 09:56:58;;;;;;;20.73;10.23;;;;;;;;;;5012655;28;20036;-64
2022/03/05 09:59:23;;;;;;;19.67;9.98;;;;;;;;;;5016223;28;20049;-63
2022/03/05 10:01:51;;;;;;;17.55;10.40;;;;;;;;;;5016383;28;20022;-64
2022/03/05 10:04:22;;;;;;;18.48;10.00;;;;;;;;;;5011789;28;20080;-64
2022/03/05 10:07:06;;;;;;;17.08;9.27;;;;;;;;;;5011884;28;20026;-64
2022/03/05 10:09:31;;;;;;;13.90;9.05;;;;;;;;;;5012289;28;20605;-67
2022/03/05 10:11:57;;;;;;;19.13;9.88;;;;;;;;;;5011837;28;20084;-65
2022/03/05 10:14:22;;;;;;;17.60;9.75;;;;;;;;;;5012284;28;20706;-64
2022/03/05 10:16:48;;;;;;;19.17;9.93;;;;;;;;;;5011841;28;20025;-71
2022/03/05 10:19:21;;;;;;;15.20;8.85;;;;;;;;;;5012054;28;20113;-64
2022/03/05 10:22:03;;;;;;;15.82;9.18;;;;;;;;;;5011753;28;20198;-64
2022/03/05 10:24:41;;;;;;;15.65;9.20;;;;;;;;;;5011829;28;20037;-63
2022/03/05 10:27:08;;;;;;;18.25;9.90;;;;;;;;;;5011766;28;20625;-64
2022/03/05 10:29:37;;;;;;;17.52;9.73;;;;;;;;;;5011873;28;20425;-64
2022/03/05 10:32:03;;;;;;;20.52;10.75;;;;;;;;;;5010781;28;20029;-65
2022/03/05 10:34:50;;;;;;;19.17;10.75;;;;;;;;;;5011037;28;20040;-64
2022/03/05 10:37:17;;;;;;;23.48;11.65;;;;;;;;;;5007462;28;20046;-64
2022/03/05 10:39:43;;;;;;;23.13;10.80;;;;;;;;;;5011758;28;20041;-63
2022/03/05 10:42:19;;;;;;;20.25;11.23;;;;;;;;;;5011319;28;20049;-65
2022/03/05 10:45:06;;;;;;;21.50;12.23;;;;;;;;;;5011827;28;20037;-64
2022/03/05 10:47:38;;;;;;;26.17;14.57;;;;;;;;;;5011414;28;20088;-64
2022/03/05 10:50:23;;;;;;;21.40;12.32;;;;;;;;;;5011272;28;20101;-65
2022/03/05 10:52:54;;;;;;;22.05;11.88;;;;;;;;;;5015394;28;20116;-65
2022/03/05 10:55:21;;;;;;;;;;;;;;;;;;5011404;28;20058;-66
2022/03/05 10:58:13;;;;;;;19.10;11.18;;;;;;;;;;5010983;28;19956;-66
2022/03/05 11:00:40;;;;;;;22.23;11.52;;;;;;;;;;5010205;28;20029;-65
2022/03/05 11:03:05;;;;;;;16.55;10.85;;;;;;;;;;5010818;28;20032;-65
2022/03/05 11:05:32;;;;;;;27.23;12.82;;;;;;;;;;5011416;28;20022;-65
2022/03/05 11:07:59;;;;;;;22.17;13.20;;;;;;;;;;5010790;28;20053;-65
2022/03/05 11:10:29;;;;;;;21.40;12.05;;;;;;;;;;5011199;28;20068;-66
2022/03/05 11:12:56;;;;;;;21.30;11.95;;;;;;;;;;5010664;28;20034;-65
2022/03/05 11:15:23;;;;;;;21.63;13.13;;;;;;;;;;5010987;28;20092;-65
2022/03/05 11:17:49;;;;;;;25.35;12.18;;;;;;;;;;5011052;28;20530;-64
2022/03/05 11:20:15;;;;;;;37.35;17.13;;;;;;;;;;5011159;28;20065;-65
2022/03/05 11:22:44;;;;;;;23.05;12.77;;;;;;;;;;5010761;28;20458;-65
2022/03/05 11:25:14;;;;;;;29.83;15.07;;;;;;;;;;5010923;28;20112;-66
2022/03/05 11:28:12;;;;;;;25.08;12.63;;;;;;;;;;5010680;28;20500;-65
2022/03/05 11:30:43;;;;;;;30.58;15.15;;;;;;;;;;5010546;28;20026;-64
2022/03/05 11:33:13;;;;;;;22.38;13.48;;;;;;;;;;5010283;28;20453;-66
2022/03/05 11:35:44;;;;;;;24.90;12.80;;;;;;;;;;5010925;28;20064;-65
2022/03/05 11:38:33;;;;;;;23.10;13.07;;;;;;;;;;5010355;28;20021;-66
2022/03/05 11:40:59;;;;;;;21.08;11.88;;;;;;;;;;5010615;28;20441;-66
2022/03/05 11:43:26;;;;;;;20.30;11.05;;;;;;;;;;5010446;28;20522;-65
2022/03/05 11:46:04;;;;;;;17.92;10.25;;;;;;;;;;5010311;28;20033;-64
2022/03/05 11:48:31;;;;;;;18.48;9.55;;;;;;;;;;5010182;28;20033;-65
2022/03/05 11:51:08;;;;;;;17.20;9.32;;;;;;;;;;5010385;28;20126;-65
2022/03/05 11:53:33;;;;;;;15.13;8.35;;;;;;;;;;4999698;28;20026;-65
2022/03/05 11:56:22;;;;;;;17.90;9.00;;;;;;;;;;5010191;28;20037;-65
2022/03/05 11:58:48;;;;;;;16.88;8.98;;;;;;;;;;5010216;28;20440;-66
2022/03/05 12:01:43;;;;;;;15.10;8.65;;;;;;;;;;5010330;28;20038;-67
2022/03/05 12:04:22;;;;;;;15.82;8.98;;;;;;;;;;5001094;28;20046;-65
2022/03/05 12:06:51;;;;;;;15.13;8.52;;;;;;;;;;5008588;28;20025;-65
2022/03/05 12:09:56;;;;;;;15.70;9.00;;;;;;;;;;5008427;28;20133;-66
2022/03/05 12:12:22;;;;;;;16.23;9.43;;;;;;;;;;4997534;28;20038;-65
2022/03/05 12:15:06;;;;;;;15.57;9.18;;;;;;;;;;5008667;28;20022;-66
2022/03/05 12:17:39;;;;;;;17.17;9.00;;;;;;;;;;5008525;28;20022;-66
2022/03/05 12:20:10;;;;;;;19.92;9.20;;;;;;;;;;5008361;28;20033;-66
2022/03/05 12:22:35;;;;;;;;;;;;;;;;;;5008824;28;20034;-67
2022/03/05 12:25:01;;;;;;;12.63;8.00;;;;;;;;;;5010271;28;20396;-67
2022/03/05 12:27:29;;;;;;;15.63;8.40;;;;;;;;;;5010112;28;20030;-67
2022/03/05 12:29:56;;;;;;;17.15;8.52;;;;;;;;;;5010002;28;20557;-66
2022/03/05 12:32:29;;;;;;;18.80;8.95;;;;;;;;;;5009912;28;20057;-66
2022/03/05 12:35:06;;;;;;;15.18;9.13;;;;;;;;;;5010234;28;20045;-66
2022/03/05 12:37:32;;;;;;;16.33;9.35;;;;;;;;;;5009907;28;20022;-66
2022/03/05 12:39:58;;;;;;;19.25;10.35;;;;;;;;;;5009940;28;20575;-66
2022/03/05 12:42:26;;;;;;;17.50;10.32;;;;;;;;;;5010015;28;20022;-69
2022/03/05 12:44:55;;;;;;;19.50;9.85;;;;;;;;;;5010013;28;20041;-66
2022/03/05 12:47:21;;;;;;;17.63;9.02;;;;;;;;;;5010076;28;20030;-66
2022/03/05 12:49:46;;;;;;;17.23;10.40;;;;;;;;;;5010240;28;20049;-66
2022/03/05 12:52:17;;;;;;;16.15;9.20;;;;;;;;;;5009876;28;20029;-66
2022/03/05 12:54:52;;;;;;;16.17;9.65;;;;;;;;;;5009935;28;20367;-65
2022/03/05 12:57:18;;;;;;;19.95;8.98;;;;;;;;;;5009783;28;20088;-66
2022/03/05 12:59:45;;;;;;;19.85;9.98;;;;;;;;;;5009694;28;20038;-66
2022/03/05 13:02:10;;;;;;;17.70;9.93;;;;;;;;;;5009945;28;20034;-66
2022/03/05 13:04:37;;;;;;;17.23;8.93;;;;;;;;;;5009629;28;20056;-66
2022/03/05 13:07:03;;;;;;;16.35;9.13;;;;;;;;;;5009887;28;20128;-66
2022/03/05 13:09:30;;;;;;;14.25;8.48;;;;;;;;;;5009529;28;20029;-66
2022/03/05 13:11:56;;;;;;;17.02;9.13;;;;;;;;;;5009769;28;20030;-66
2022/03/05 13:14:22;;;;;;;14.25;8.48;;;;;;;;;;5009413;28;20036;-67
2022/03/05 13:16:52;;;;;;;17.50;9.43;;;;;;;;;;5009727;28;20125;-66
2022/03/05 13:19:18;;;;;;;21.63;10.00;;;;;;;;;;5009611;28;20101;-66
2022/03/05 13:21:49;;;;;;;16.73;9.52;;;;;;;;;;5010026;28;20212;-66
2022/03/05 13:24:18;;;;;;;;;;;;;;;;;;5010394;28;20109;-65
2022/03/05 13:26:45;;;;;;;15.25;8.23;;;;;;;;;;5013520;28;19957;-66
2022/03/05 13:29:11;;;;;;;17.73;9.57;;;;;;;;;;5012894;28;20041;-66
2022/03/05 13:31:37;;;;;;;14.70;9.45;;;;;;;;;;5013086;28;20025;-66
2022/03/05 13:34:03;;;;;;;17.90;10.30;;;;;;;;;;5012549;28;20042;-67
2022/03/05 13:36:41;;;;;;;18.23;9.85;;;;;;;;;;5013244;28;20038;-66
2022/03/05 13:39:11;;;;;;;18.92;10.90;;;;;;;;;;5021891;28;20072;-64
2022/03/05 13:41:44;;;;;;;18.33;10.60;;;;;;;;;;5022532;28;20025;-66
2022/03/05 13:44:23;;;;;;;19.60;11.20;;;;;;;;;;5022050;28;20037;-67
2022/03/05 13:46:51;;;;;;;20.58;11.60;;;;;;;;;;5033829;28;20033;-66
2022/03/05 13:49:19;;;;;;;19.83;11.85;;;;;;;;;;5021741;28;20037;-66
2022/03/05 13:51:57;;;;;;;28.83;14.43;;;;;;;;;;5022480;28;20029;-73
2022/03/05 13:54:44;;;;;;;30.58;16.33;;;;;;;;;;5021890;28;20077;-66
2022/03/05 13:57:28;;;;;;;28.00;14.98;;;;;;;;;;5021909;28;20026;-67
2022/03/05 13:59:54;;;;;;;28.65;13.80;;;;;;;;;;5022371;28;20034;-66
2022/03/05 14:02:19;;;;;;;27.00;13.20;;;;;;;;;;5023753;28;20030;-66
2022/03/05 14:05:24;;;;;;;25.60;12.85;;;;;;;;;;5022077;28;20326;-65
2022/03/05 14:07:56;;;;;;;26.20;14.10;;;;;;;;;;5018019;28;20025;-66
2022/03/05 14:10:22;;;;;;;25.92;13.90;;;;;;;;;;5022040;28;20030;-65
2022/03/05 14:12:51;;;;;;;27.67;13.98;;;;;;;;;;5022597;28;20121;-66
2022/03/05 14:15:17;;;;;;;25.20;13.02;;;;;;;;;;5021861;28;20041;-65
2022/03/05 14:17:48;;;;;;;25.50;13.63;;;;;;;;;;5021905;28;20072;-66
2022/03/05 14:20:26;;;;;;;27.33;13.82;;;;;;;;;;5023841;28;20034;-65
2022/03/05 14:23:06;;;;;;;28.15;12.95;;;;;;;;;;5022055;28;20045;-66
2022/03/05 14:25:37;;;;;;;39.65;17.10;;;;;;;;;;5022230;28;20187;-65
2022/03/05 14:28:05;;;;;;;41.60;18.98;;;;;;;;;;5021938;28;20089;-65
2022/03/05 14:30:32;;;;;;;44.72;19.73;;;;;;;;;;5021534;28;20022;-65
2022/03/05 14:32:59;;;;;;;37.50;17.38;;;;;;;;;;5022102;28;20026;-66